Flight Track Log - Related Links

Times and Time Zones

All times are in EDT time to prevent confusion due to time zone crossing. See the N110G flight status page for this flight to view local times or setup timezone preferences in your user account.


Time Position Orientation Groundspeed Altitude Reporting Facility
EDT Latitude Longitude Course Direction KTS MPH feet Rate Location/Type
Thu 09:39:15 PM 38.4953 -122.7968 269° West  Level FlightAware Approximate
Thu 09:42:21 PM 38.4944 -122.8653 12° North 220 253 3,000  Level Oakland Center
Thu 09:43:21 PM 38.5383 -122.8533 10° North 80 92 5,400 2,250 Climbing Oakland Center
Thu 09:44:21 PM 38.5803 -122.8436 356° North 95 109 7,500 2,033 Climbing Oakland Center
Thu 09:45:22 PM 38.6197 -122.8475 123° Southeast 122 140 9,500 1,850 Climbing Oakland Center
Thu 09:46:21 PM 38.5936 -122.7961 134° Southeast 82 94 11,200 1,714 Climbing Oakland Center
Thu 09:47:21 PM 38.5608 -122.7531 141° Southeast 119 137 12,900 1,600 Climbing Oakland Center
Thu 09:48:21 PM 38.5219 -122.7122 145° Southeast 150 173 14,400 1,550 Climbing Oakland Center
Thu 09:49:21 PM 38.4764 -122.6711 140° Southeast 182 209 16,000 1,700 Climbing Oakland Center
Thu 09:50:21 PM 38.4333 -122.6253 143° Southeast 194 223 17,800 1,550 Climbing Oakland Center
Thu 09:51:21 PM 38.3861 -122.5792 137° Southeast 200 230 19,100 1,400 Climbing Oakland Center
Thu 09:52:21 PM 38.3431 -122.5278 138° Southeast 206 237 20,600 950 Climbing Oakland Center
Thu 09:53:21 PM 38.2956 -122.4739 141° Southeast 214 246 21,000 200 Climbing Oakland Center
Thu 09:54:21 PM 38.2381 -122.4144 137° Southeast 239 275 21,000  Level Oakland Center
Thu 09:55:21 PM 38.1783 -122.3447 136° Southeast 270 311 21,000  Level Oakland Center
Thu 09:56:21 PM 38.1186 -122.2722 137° Southeast 286 329 21,000  Level Oakland Center
Thu 09:57:21 PM 38.0569 -122.2000 138° Southeast 291 335 21,000  Level Oakland Center
Thu 09:58:21 PM 37.9969 -122.1306 138° Southeast 291 335 21,000  Level Oakland Center
Thu 09:59:21 PM 37.9353 -122.0611 138° Southeast 291 335 21,000  Level Oakland Center
Thu 10:00:21 PM 37.8733 -121.9917 138° Southeast 291 335 21,000  Level Oakland Center
Thu 10:01:21 PM 37.8069 -121.9172 138° Southeast 291 335 21,000  Level Oakland Center
Thu 10:02:21 PM 37.7431 -121.8456 139° Southeast 300 345 21,000  Level Oakland Center
Thu 10:03:21 PM 37.6808 -121.7764 139° Southeast 300 345 21,000  Level Oakland Center
Thu 10:04:21 PM 37.6186 -121.7078 137° Southeast 300 345 21,000  Level Oakland Center
Thu 10:05:21 PM 37.5586 -121.6364 140° Southeast 300 345 21,000  Level Oakland Center
Thu 10:06:21 PM 37.4964 -121.5703 139° Southeast 300 345 21,000  Level Oakland Center
Thu 10:07:21 PM 37.4342 -121.5019 139° Southeast 300 345 21,000  Level Oakland Center
Thu 10:08:21 PM 37.3719 -121.4333 136° Southeast 300 345 21,000  Level Oakland Center
Thu 10:09:21 PM 37.3158 -121.3653 139° Southeast 311 358 21,000 -150 Level Oakland Center
Thu 10:10:21 PM 37.2514 -121.2944 139° Southeast 311 358 20,700  Descending Oakland Center
Thu 10:11:21 PM 37.1889 -121.2264 137° Southeast 306 352 21,000 150 Climbing Oakland Center
Thu 10:12:21 PM 37.1286 -121.1558 138° Southeast 301 346 21,000  Level Oakland Center
Thu 10:13:21 PM 37.0661 -121.0856 137° Southeast 301 346 21,000  Level Oakland Center
Thu 10:14:21 PM 37.0056 -121.0150 140° Southeast 301 346 21,000  Level Oakland Center
Thu 10:15:21 PM 36.9411 -120.9475 139° Southeast 301 346 21,000  Level Oakland Center
Thu 10:16:21 PM 36.8783 -120.8800 150° Southeast 301 346 21,000 -200 Level Oakland Center
Thu 10:17:21 PM 36.8094 -120.8308 156° South 296 341 20,600 -600 Descending Oakland Center
Thu 10:18:21 PM 36.7344 -120.7894 155° Southeast 286 329 19,800 -800 Descending Oakland Center
Thu 10:19:21 PM 36.6550 -120.7431 144° Southeast 299 344 19,000 -400 Descending Oakland Center
Thu 10:20:21 PM 36.5861 -120.6814 145° Southeast 304 350 19,000  Level Oakland Center
Thu 10:21:21 PM 36.5192 -120.6222 148° Southeast 304 350 19,000  Level Oakland Center
Thu 10:22:21 PM 36.4522 -120.5708 150° Southeast 297 342 19,000  Level Oakland Center
Thu 10:23:21 PM 36.3831 -120.5222 150° Southeast 292 336 19,000  Level Oakland Center
Thu 10:24:21 PM 36.3142 -120.4736 150° Southeast 287 330 19,000  Level Oakland Center
Thu 10:25:21 PM 36.2450 -120.4250 148° Southeast 287 330 19,000  Level Oakland Center
Thu 10:26:21 PM 36.1803 -120.3742 149° Southeast 287 330 19,000  Level Oakland Center
Thu 10:27:21 PM 36.1111 -120.3233 149° Southeast 287 330 19,000  Level Oakland Center
Thu 10:28:21 PM 36.0397 -120.2700 150° Southeast 287 330 19,000  Level Oakland Center
Thu 10:29:20 PM 35.9697 -120.2194 148° Southeast 285 328 19,000  Level Los Angeles Center
Thu 10:30:20 PM 35.9028 -120.1672 149° Southeast 285 328 19,000  Level Los Angeles Center
Thu 10:31:20 PM 35.8336 -120.1150 149° Southeast 285 328 19,000  Level Los Angeles Center
Thu 10:32:20 PM 35.7642 -120.0631 150° Southeast 285 328 19,000  Level Los Angeles Center
Thu 10:33:20 PM 35.6950 -120.0136 145° Southeast 285 328 19,000 -200 Level Los Angeles Center
Thu 10:34:20 PM 35.6278 -119.9567 132° Southeast 290 334 18,600 -900 Descending Los Angeles Center
Thu 10:35:20 PM 35.5678 -119.8747 128° Southeast 306 352 17,200 -1,350 Descending Los Angeles Center
Thu 10:36:20 PM 35.5100 -119.7853 127° Southeast 321 369 15,900 -1,050 Descending Los Angeles Center
Thu 10:37:20 PM 35.4544 -119.6936 129° Southeast 332 382 15,100 -450 Descending Los Angeles Center
Thu 10:38:20 PM 35.4025 -119.6150 131° Southeast 320 368 15,000 -50 Descending Los Angeles Center
Thu 10:39:20 PM 35.3483 -119.5386 130° Southeast 308 354 15,000  Level Los Angeles Center
Thu 10:40:20 PM 35.2919 -119.4575 131° Southeast 302 348 15,000  Level Los Angeles Center
Thu 10:41:20 PM 35.2378 -119.3814 128° Southeast 302 348 15,000  Level Los Angeles Center
Thu 10:42:20 PM 35.1836 -119.2981 129° Southeast 302 348 15,000  Level Los Angeles Center
Thu 10:43:20 PM 35.1314 -119.2197 131° Southeast 302 348 15,000  Level Los Angeles Center
Thu 10:44:20 PM 35.0769 -119.1442 128° Southeast 296 341 15,000  Level Los Angeles Center
Thu 10:45:20 PM 35.0247 -119.0636 131° Southeast 296 341 15,000  Level Los Angeles Center
Thu 10:46:20 PM 34.9700 -118.9881 130° Southeast 296 341 15,000  Level Los Angeles Center
Thu 10:47:20 PM 34.9156 -118.9103 135° Southeast 291 335 15,000 -50 Level Los Angeles Center
Thu 10:48:20 PM 34.8608 -118.8425 130° Southeast 286 329 14,900 -400 Descending Los Angeles Center
Thu 10:49:20 PM 34.8042 -118.7597 132° Southeast 292 336 14,200 -750 Descending Los Angeles Center
Thu 10:50:20 PM 34.7453 -118.6794 128° Southeast 303 349 13,400 -850 Descending Los Angeles Center
Thu 10:51:20 PM 34.6847 -118.5867 146° Southeast 308 354 12,500 -1,100 Descending Los Angeles Center
Thu 10:52:20 PM 34.6147 -118.5292 157° South 308 354 11,200 -900 Descending Los Angeles Center
Thu 10:53:20 PM 34.5406 -118.4917 156° South 296 341 10,700 -1,050 Descending Los Angeles Center
Thu 10:54:20 PM 34.4681 -118.4519 156° South 285 328 9,100 -850 Descending Los Angeles Center
Thu 10:55:20 PM 34.4000 -118.4147 155° Southeast 279 321 9,000 -50 Descending Los Angeles Center
Thu 10:56:20 PM 34.3339 -118.3778 155° Southeast 274 315 9,000  Level Los Angeles Center
Thu 10:57:20 PM 34.2719 -118.3433 152° Southeast 269 310 9,000  Level Los Angeles Center
Thu 10:58:20 PM 34.2100 -118.3039 154° Southeast 264 304 9,000  Level Los Angeles Center
Thu 10:59:20 PM 34.1522 -118.2700 155° Southeast 253 291 9,000  Level Los Angeles Center
Thu 11:00:20 PM 34.0922 -118.2358 151° Southeast 242 278 9,000  Level Los Angeles Center
Thu 11:01:20 PM 34.0367 -118.1992 163° South 236 272 9,000  Level Los Angeles Center
Thu 11:02:20 PM 33.9703 -118.1750 184° South 236 272 9,000 -250 Level Los Angeles Center
Thu 11:03:20 PM 33.9053 -118.1811 188° South 223 257 8,500 -600 Descending Los Angeles Center
Thu 11:04:20 PM 33.8406 -118.1919 171° South 223 257 7,800 -800 Descending Los Angeles Center
Thu 11:05:20 PM 33.7803 -118.1806 183° South 230 265 6,900 -1,150 Descending Los Angeles Center
Thu 11:06:20 PM 33.7258 -118.1842 119° Southeast 230 265 5,500 -950 Descending Los Angeles Center
Thu 11:07:20 PM 33.6956 -118.1186 107° East 187 215 5,000 -250 Descending Los Angeles Center
Thu 11:08:20 PM 33.6781 -118.0483 63° Northeast 198 228 5,000 -50 Level Los Angeles Center
Thu 11:09:20 PM 33.7039 -117.9864 45° Northeast 202 232 4,900 -400 Descending Los Angeles Center
Thu 11:10:20 PM 33.7422 -117.9397 73° East 187 215 4,200 -1,000 Descending Los Angeles Center
Thu 11:11:20 PM 33.7533 -117.8950 118° Southeast 174 200 2,900 -1,256 Descending Los Angeles Center
Thu 11:12:29 PM 33.7333 -117.8500 180° South 134 154 1,500 -977 Descending Southern California TRACON
Thu 11:13:29 PM 33.7000 -117.8500 180° South 112 129 800 -700 Descending Southern California TRACON

Login

Don't have an account? Register now (free) for customized features, flight alerts, and more!